Mekhanik Antonov — UBBH9 — position and weather

sailwx.info

Track history (hours):
 
Tides and Currents Weather Stations Pressure Air Temp Water Temp Dewpoint Dewpoint Depression Visibility Wind Speed Wind Dir Waves Ship Positions

Mekhanik Antonov

Last reported at 2017-Nov-17 05:58 UTC. Time now 2017-Nov-21 06:26 UTC.
Position N 45°32' E 036°47'.

Length 141 m; draft 2.8 m.

Type: Tanker. MMSI: 273351320.

Date/timePositionNaut miles runAvg speedWind from/ knotsBaromVisibWave heightAir tempDewpointWater temp
2017-Nov-17 05:58N 45°32' E 036°47'3 6.4
2017-Nov-17 05:30N 45°30' E 036°44'3 6.1
2017-Nov-17 05:00N 45°27' E 036°42'3 6.6
2017-Nov-17 04:30N 45°24' E 036°41'3 6.4
2017-Nov-17 04:00N 45°21' E 036°40'3 6.0
2017-Nov-17 03:31N 45°20' E 036°36'3 6.0
2017-Nov-17 03:00N 45°19' E 036°32'3 5.4
2017-Nov-17 02:30N 45°17' E 036°29'2 4.6
2017-Nov-17 01:59N 45°15' E 036°29'1 1.3
2017-Nov-17 01:25N 45°14' E 036°30'0 0.0
2017-Nov-17 00:53N 45°14' E 036°30'0 0.0
2017-Nov-17 00:29N 45°14' E 036°30'0 0.0
2017-Nov-16 23:59N 45°14' E 036°30'0 0.0
2017-Nov-16 22:39N 45°14' E 036°30'0 0.0
2017-Nov-16 22:30N 45°14' E 036°30'0 0.0
2017-Nov-16 21:57N 45°14' E 036°30'0 0.0
2017-Nov-16 21:27N 45°14' E 036°30'0 0.0
2017-Nov-16 20:58N 45°14' E 036°30'0 0.0
2017-Nov-16 20:26N 45°14' E 036°30'0 0.0
2017-Nov-16 18:45N 45°14' E 036°30'0 0.1
2017-Nov-16 18:29N 45°14' E 036°30'0 0.0
2017-Nov-16 18:00N 45°14' E 036°30'2 0.1
2017-Nov-15 17:56N 45°16' E 036°28'3 6.7
2017-Nov-15 17:30N 45°18' E 036°29'4 8.0
2017-Nov-15 17:01N 45°20' E 036°35'4 7.7
2017-Nov-15 16:30N 45°22' E 036°39'4 7.0
2017-Nov-15 16:00N 45°25' E 036°40'3 5.8
2017-Nov-15 15:24N 45°28' E 036°37'0 0.1
2017-Nov-15 14:45N 45°28' E 036°37'0 0.0
2017-Nov-15 14:28N 45°28' E 036°37'0 0.0
2017-Nov-15 13:44N 45°28' E 036°37'0 0.0
2017-Nov-15 13:29N 45°28' E 036°37'0 0.0
2017-Nov-15 12:59N 45°28' E 036°37'0 0.0
2017-Nov-15 12:30N 45°28' E 036°37'0 0.0
2017-Nov-15 11:59N 45°28' E 036°37'0 0.0
2017-Nov-15 11:23N 45°28' E 036°37'0 0.0
2017-Nov-15 10:57N 45°28' E 036°37'0 0.0
2017-Nov-15 10:22N 45°28' E 036°37'0 0.0
2017-Nov-15 09:56N 45°28' E 036°37'0 0.0
2017-Nov-15 09:25N 45°28' E 036°37'0 0.0
2017-Nov-15 08:58N 45°28' E 036°37'0 0.0
2017-Nov-15 08:29N 45°28' E 036°37'0 0.0
2017-Nov-15 08:00N 45°28' E 036°37'0 0.0
2017-Nov-15 07:24N 45°28' E 036°37'0 0.0
2017-Nov-15 06:59N 45°28' E 036°37'0 0.0
2017-Nov-15 06:28N 45°28' E 036°37'0 0.0
2017-Nov-15 04:21N 45°28' E 036°37'0 0.0
2017-Nov-15 03:54N 45°28' E 036°37'0 0.0
2017-Nov-15 03:30N 45°28' E 036°37'0 0.0
2017-Nov-15 02:56N 45°28' E 036°37'0 0.1
2017-Nov-15 02:30N 45°28' E 036°37'2 4.2
2017-Nov-15 02:00N 45°28' E 036°40'4 6.4
2017-Nov-15 01:25N 45°30' E 036°45'  
Track history (hours):
 
Tides and Currents Weather Stations Pressure Air Temp Water Temp Dewpoint Dewpoint Depression Visibility Wind Speed Wind Dir Waves Ship Positions

Mekhanik Antonov

Last reported at 2017-Nov-17 05:58 UTC. Time now 2017-Nov-21 06:26 UTC.
Position N 45°32' E 036°47'.

Length 141 m; draft 2.8 m.

Type: Tanker. MMSI: 273351320.

Date/timePositionNaut miles runAvg speedWind from/ knotsBaromVisibWave heightAir tempDewpointWater temp
2017-Nov-17 05:58N 45°32' E 036°47'3 6.4
2017-Nov-17 05:30N 45°30' E 036°44'3 6.1
2017-Nov-17 05:00N 45°27' E 036°42'3 6.6
2017-Nov-17 04:30N 45°24' E 036°41'3 6.4
2017-Nov-17 04:00N 45°21' E 036°40'3 6.0
2017-Nov-17 03:31N 45°20' E 036°36'3 6.0
2017-Nov-17 03:00N 45°19' E 036°32'3 5.4
2017-Nov-17 02:30N 45°17' E 036°29'2 4.6
2017-Nov-17 01:59N 45°15' E 036°29'1 1.3
2017-Nov-17 01:25N 45°14' E 036°30'0 0.0
2017-Nov-17 00:53N 45°14' E 036°30'0 0.0
2017-Nov-17 00:29N 45°14' E 036°30'0 0.0
2017-Nov-16 23:59N 45°14' E 036°30'0 0.0
2017-Nov-16 22:39N 45°14' E 036°30'0 0.0
2017-Nov-16 22:30N 45°14' E 036°30'0 0.0
2017-Nov-16 21:57N 45°14' E 036°30'0 0.0
2017-Nov-16 21:27N 45°14' E 036°30'0 0.0
2017-Nov-16 20:58N 45°14' E 036°30'0 0.0
2017-Nov-16 20:26N 45°14' E 036°30'0 0.0
2017-Nov-16 18:45N 45°14' E 036°30'0 0.1
2017-Nov-16 18:29N 45°14' E 036°30'0 0.0
2017-Nov-16 18:00N 45°14' E 036°30'2 0.1
2017-Nov-15 17:56N 45°16' E 036°28'3 6.7
2017-Nov-15 17:30N 45°18' E 036°29'4 8.0
2017-Nov-15 17:01N 45°20' E 036°35'4 7.7
2017-Nov-15 16:30N 45°22' E 036°39'4 7.0
2017-Nov-15 16:00N 45°25' E 036°40'3 5.8
2017-Nov-15 15:24N 45°28' E 036°37'0 0.1
2017-Nov-15 14:45N 45°28' E 036°37'0 0.0
2017-Nov-15 14:28N 45°28' E 036°37'0 0.0
2017-Nov-15 13:44N 45°28' E 036°37'0 0.0
2017-Nov-15 13:29N 45°28' E 036°37'0 0.0
2017-Nov-15 12:59N 45°28' E 036°37'0 0.0
2017-Nov-15 12:30N 45°28' E 036°37'0 0.0
2017-Nov-15 11:59N 45°28' E 036°37'0 0.0
2017-Nov-15 11:23N 45°28' E 036°37'0 0.0
2017-Nov-15 10:57N 45°28' E 036°37'0 0.0
2017-Nov-15 10:22N 45°28' E 036°37'0 0.0
2017-Nov-15 09:56N 45°28' E 036°37'0 0.0
2017-Nov-15 09:25N 45°28' E 036°37'0 0.0
2017-Nov-15 08:58N 45°28' E 036°37'0 0.0
2017-Nov-15 08:29N 45°28' E 036°37'0 0.0
2017-Nov-15 08:00N 45°28' E 036°37'0 0.0
2017-Nov-15 07:24N 45°28' E 036°37'0 0.0
2017-Nov-15 06:59N 45°28' E 036°37'0 0.0
2017-Nov-15 06:28N 45°28' E 036°37'0 0.0
2017-Nov-15 04:21N 45°28' E 036°37'0 0.0
2017-Nov-15 03:54N 45°28' E 036°37'0 0.0
2017-Nov-15 03:30N 45°28' E 036°37'0 0.0
2017-Nov-15 02:56N 45°28' E 036°37'0 0.1
2017-Nov-15 02:30N 45°28' E 036°37'2 4.2
2017-Nov-15 02:00N 45°28' E 036°40'4 6.4
2017-Nov-15 01:25N 45°30' E 036°45'  

Dump ship's entire track history